MSC Barbara — HODU — position and weather

sailwx.info

Track history (hours):
 
Tides and Currents Weather Stations Pressure Air Temp Water Temp Dewpoint Dewpoint Depression Visibility Wind Speed Wind Dir Waves Ship Positions

MSC Barbara

Last reported at 2016-Jun-18 06:33 UTC. Time now 2016-Jun-26 21:02 UTC.
Position N 31°56' W 080°40'.
Warning: this ship's position is 8 days out of date.

Length 512 m; draft 10.5 m.

Type: Ship. MMSI: 353775000.

Date/timePositionNaut miles runAvg speedWind from/ knotsBaromVisibWave heightAir tempDewpointWater temp
2016-Jun-18 06:33N 31°56' W 080°40'1312.8
2016-Jun-18 05:31N 32°02' W 080°54'9 8.9
2016-Jun-18 04:33N 32°05' W 081°04'5 1.1
2016-Jun-18 00:23N 32°08' W 081°08'0 0.0
2016-Jun-17 21:22N 32°08' W 081°08'0 0.0
2016-Jun-17 19:30N 32°08' W 081°08'0 0.0
2016-Jun-17 17:26N 32°08' W 081°08'0 0.0
2016-Jun-17 16:25N 32°08' W 081°08'0 0.0
2016-Jun-17 13:24N 32°08' W 081°08'0 0.0
2016-Jun-17 12:24N 32°08' W 081°08'0 0.0
2016-Jun-17 11:33N 32°08' W 081°08'0 0.0
2016-Jun-17 10:33N 32°08' W 081°08'0 0.0
2016-Jun-17 09:33N 32°08' W 081°08'0 0.0
2016-Jun-17 08:32N 32°08' W 081°08'1 0.9
2016-Jun-17 07:33N 32°07' W 081°08'5 5.0
2016-Jun-17 06:31N 32°05' W 081°02'10 9.9
2016-Jun-17 05:33N 32°02' W 080°51'1110.4
2016-Jun-17 04:32N 31°57' W 080°40'379 9.9
2016-Jun-15 14:08N 36°53' W 075°54'813.5
2016-Jun-15 13:33N 36°59' W 076°00'1715.3
2016-Jun-15 12:26N 37°15' W 076°08'1415.6
2016-Jun-15 11:33N 37°28' W 076°04'1515.0
2016-Jun-15 10:33N 37°42' W 076°11'1616.0
2016-Jun-15 09:33N 37°58' W 076°11'1916.8
2016-Jun-15 08:26N 38°17' W 076°17'1517.0
2016-Jun-15 07:33N 38°30' W 076°24'1615.9
2016-Jun-15 06:33N 38°46' W 076°26'1515.3
2016-Jun-15 05:33N 39°01' W 076°23'1111.4
2016-Jun-15 04:33N 39°12' W 076°29'5 4.7
2016-Jun-15 03:33N 39°15' W 076°33'0 0.0
2016-Jun-15 02:32N 39°15' W 076°33'0 0.0
2016-Jun-15 01:20N 39°15' W 076°33'0 0.0
2016-Jun-15 00:31N 39°15' W 076°33'0 0.0
2016-Jun-14 20:17N 39°15' W 076°33'0 0.0
2016-Jun-14 19:26N 39°15' W 076°33'0 0.0
2016-Jun-14 18:32N 39°15' W 076°33'0 0.0
2016-Jun-14 17:28N 39°15' W 076°33'0 0.0
2016-Jun-14 16:31N 39°15' W 076°33'0 0.0
2016-Jun-14 15:33N 39°15' W 076°33'0 0.0
2016-Jun-14 14:09N 39°15' W 076°33'0 0.0
2016-Jun-14 13:32N 39°15' W 076°33'0 0.0
2016-Jun-14 12:17N 39°15' W 076°33'0 0.0
2016-Jun-14 11:32N 39°15' W 076°33'0 0.0
2016-Jun-14 10:33N 39°15' W 076°33'0 0.0
2016-Jun-14 09:33N 39°15' W 076°33'2 1.9
2016-Jun-14 08:34N 39°13' W 076°32'9 8.8
2016-Jun-14 07:33N 39°07' W 076°24'1211.6
2016-Jun-14 06:33N 38°56' W 076°23'3416.6
2016-Jun-14 04:30N 38°22' W 076°19'7216.2
2016-Jun-14 00:05N 37°11' W 076°09'917.0
2016-Jun-13 23:33N 37°03' W 076°04'1312.7
2016-Jun-13 22:33N 36°54' W 075°53'186 7.4
2016-Jun-12 21:24N 39°35' W 073°55'9 9.2
2016-Jun-12 20:25N 39°44' W 073°53'8 9.2
2016-Jun-12 19:31N 39°52' W 073°52'35 8.9
2016-Jun-12 15:33N 40°28' W 073°51'1413.9
2016-Jun-12 14:33N 40°38' W 074°03'4 4.2
2016-Jun-12 13:34N 40°40' W 074°08'1 0.2
2016-Jun-12 08:21N 40°41' W 074°09'0 0.0
2016-Jun-12 07:26N 40°41' W 074°09'0 0.0
2016-Jun-12 06:26N 40°41' W 074°09'0 0.0
2016-Jun-12 04:25N 40°41' W 074°09'0 0.0
2016-Jun-12 03:12N 40°41' W 074°09'0 0.0
2016-Jun-12 02:21N 40°41' W 074°09'0 0.0
2016-Jun-12 01:30N 40°41' W 074°09'0 0.0
2016-Jun-12 00:32N 40°41' W 074°09'0 0.0
2016-Jun-11 23:26N 40°41' W 074°09'0 0.0
2016-Jun-11 22:31N 40°41' W 074°09'0 0.0
2016-Jun-11 21:28N 40°41' W 074°09'0 0.0
2016-Jun-11 20:31N 40°41' W 074°09'0 0.0
2016-Jun-11 19:30N 40°41' W 074°09'0 0.0
2016-Jun-11 17:11N 40°41' W 074°09'0 0.0
2016-Jun-11 16:32N 40°41' W 074°09'0 0.0
2016-Jun-11 15:31N 40°41' W 074°09'0 0.0
2016-Jun-11 13:25N 40°41' W 074°09'0 0.0
2016-Jun-11 12:33N 40°41' W 074°09'2 2.1
2016-Jun-11 11:33N 40°39' W 074°09'6 6.3
2016-Jun-11 10:33N 40°35' W 074°02'1312.7
2016-Jun-11 09:33N 40°27' W 073°49'2612.5
2016-Jun-11 07:30N 40°02' W 073°44'1818.7
2016-Jun-11 06:33N 39°44' W 073°42'1818.5
2016-Jun-11 05:33N 39°27' W 073°50'1918.5
2016-Jun-11 04:33N 39°10' W 073°59'1818.3
2016-Jun-11 03:33N 38°54' W 074°11'1818.3
2016-Jun-11 02:33N 38°38' W 074°22'1918.8
2016-Jun-11 01:33N 38°22' W 074°34'10918.2
2016-Jun-10 19:33N 36°52' W 075°52'1414.0
2016-Jun-10 18:33N 36°59' W 076°07'1110.8
2016-Jun-10 17:33N 36°56' W 076°20'3 0.8
2016-Jun-10 13:25N 36°53' W 076°21'0 0.0
2016-Jun-10 10:24N 36°53' W 076°21'0 0.0
2016-Jun-10 09:33N 36°53' W 076°21'0 0.0
2016-Jun-10 08:32N 36°53' W 076°21'0 0.0
2016-Jun-10 07:29N 36°53' W 076°21'0 0.0
2016-Jun-10 06:13N 36°53' W 076°21'0 0.0
2016-Jun-10 05:31N 36°53' W 076°21'0 0.0
2016-Jun-10 04:15N 36°53' W 076°21'0 0.0
2016-Jun-10 03:27N 36°53' W 076°21'0 0.0
2016-Jun-10 02:27N 36°53' W 076°21'0 0.0
2016-Jun-09 22:21N 36°53' W 076°21'0 0.0
2016-Jun-09 21:33N 36°53' W 076°21'6 5.3
2016-Jun-09 20:30N 36°58' W 076°20'1111.4
2016-Jun-09 19:34N 36°58' W 076°07'1312.7
2016-Jun-09 18:34N 36°53' W 075°52'32314.7
2016-Jun-08 20:33N 31°50' W 078°05'  
Track history (hours):
 
Tides and Currents Weather Stations Pressure Air Temp Water Temp Dewpoint Dewpoint Depression Visibility Wind Speed Wind Dir Waves Ship Positions

MSC Barbara

Last reported at 2016-Jun-18 06:33 UTC. Time now 2016-Jun-26 21:02 UTC.
Position N 31°56' W 080°40'.
Warning: this ship's position is 8 days out of date.

Length 512 m; draft 10.5 m.

Type: Ship. MMSI: 353775000.

Date/timePositionNaut miles runAvg speedWind from/ knotsBaromVisibWave heightAir tempDewpointWater temp
2016-Jun-18 06:33N 31°56' W 080°40'1312.8
2016-Jun-18 05:31N 32°02' W 080°54'9 8.9
2016-Jun-18 04:33N 32°05' W 081°04'5 1.1
2016-Jun-18 00:23N 32°08' W 081°08'0 0.0
2016-Jun-17 21:22N 32°08' W 081°08'0 0.0
2016-Jun-17 19:30N 32°08' W 081°08'0 0.0
2016-Jun-17 17:26N 32°08' W 081°08'0 0.0
2016-Jun-17 16:25N 32°08' W 081°08'0 0.0
2016-Jun-17 13:24N 32°08' W 081°08'0 0.0
2016-Jun-17 12:24N 32°08' W 081°08'0 0.0
2016-Jun-17 11:33N 32°08' W 081°08'0 0.0
2016-Jun-17 10:33N 32°08' W 081°08'0 0.0
2016-Jun-17 09:33N 32°08' W 081°08'0 0.0
2016-Jun-17 08:32N 32°08' W 081°08'1 0.9
2016-Jun-17 07:33N 32°07' W 081°08'5 5.0
2016-Jun-17 06:31N 32°05' W 081°02'10 9.9
2016-Jun-17 05:33N 32°02' W 080°51'1110.4
2016-Jun-17 04:32N 31°57' W 080°40'379 9.9
2016-Jun-15 14:08N 36°53' W 075°54'813.5
2016-Jun-15 13:33N 36°59' W 076°00'1715.3
2016-Jun-15 12:26N 37°15' W 076°08'1415.6
2016-Jun-15 11:33N 37°28' W 076°04'1515.0
2016-Jun-15 10:33N 37°42' W 076°11'1616.0
2016-Jun-15 09:33N 37°58' W 076°11'1916.8
2016-Jun-15 08:26N 38°17' W 076°17'1517.0
2016-Jun-15 07:33N 38°30' W 076°24'1615.9
2016-Jun-15 06:33N 38°46' W 076°26'1515.3
2016-Jun-15 05:33N 39°01' W 076°23'1111.4
2016-Jun-15 04:33N 39°12' W 076°29'5 4.7
2016-Jun-15 03:33N 39°15' W 076°33'0 0.0
2016-Jun-15 02:32N 39°15' W 076°33'0 0.0
2016-Jun-15 01:20N 39°15' W 076°33'0 0.0
2016-Jun-15 00:31N 39°15' W 076°33'0 0.0
2016-Jun-14 20:17N 39°15' W 076°33'0 0.0
2016-Jun-14 19:26N 39°15' W 076°33'0 0.0
2016-Jun-14 18:32N 39°15' W 076°33'0 0.0
2016-Jun-14 17:28N 39°15' W 076°33'0 0.0
2016-Jun-14 16:31N 39°15' W 076°33'0 0.0
2016-Jun-14 15:33N 39°15' W 076°33'0 0.0
2016-Jun-14 14:09N 39°15' W 076°33'0 0.0
2016-Jun-14 13:32N 39°15' W 076°33'0 0.0
2016-Jun-14 12:17N 39°15' W 076°33'0 0.0
2016-Jun-14 11:32N 39°15' W 076°33'0 0.0
2016-Jun-14 10:33N 39°15' W 076°33'0 0.0
2016-Jun-14 09:33N 39°15' W 076°33'2 1.9
2016-Jun-14 08:34N 39°13' W 076°32'9 8.8
2016-Jun-14 07:33N 39°07' W 076°24'1211.6
2016-Jun-14 06:33N 38°56' W 076°23'3416.6
2016-Jun-14 04:30N 38°22' W 076°19'7216.2
2016-Jun-14 00:05N 37°11' W 076°09'917.0
2016-Jun-13 23:33N 37°03' W 076°04'1312.7
2016-Jun-13 22:33N 36°54' W 075°53'186 7.4
2016-Jun-12 21:24N 39°35' W 073°55'9 9.2
2016-Jun-12 20:25N 39°44' W 073°53'8 9.2
2016-Jun-12 19:31N 39°52' W 073°52'35 8.9
2016-Jun-12 15:33N 40°28' W 073°51'1413.9
2016-Jun-12 14:33N 40°38' W 074°03'4 4.2
2016-Jun-12 13:34N 40°40' W 074°08'1 0.2
2016-Jun-12 08:21N 40°41' W 074°09'0 0.0
2016-Jun-12 07:26N 40°41' W 074°09'0 0.0
2016-Jun-12 06:26N 40°41' W 074°09'0 0.0
2016-Jun-12 04:25N 40°41' W 074°09'0 0.0
2016-Jun-12 03:12N 40°41' W 074°09'0 0.0
2016-Jun-12 02:21N 40°41' W 074°09'0 0.0
2016-Jun-12 01:30N 40°41' W 074°09'0 0.0
2016-Jun-12 00:32N 40°41' W 074°09'0 0.0
2016-Jun-11 23:26N 40°41' W 074°09'0 0.0
2016-Jun-11 22:31N 40°41' W 074°09'0 0.0
2016-Jun-11 21:28N 40°41' W 074°09'0 0.0
2016-Jun-11 20:31N 40°41' W 074°09'0 0.0
2016-Jun-11 19:30N 40°41' W 074°09'0 0.0
2016-Jun-11 17:11N 40°41' W 074°09'0 0.0
2016-Jun-11 16:32N 40°41' W 074°09'0 0.0
2016-Jun-11 15:31N 40°41' W 074°09'0 0.0
2016-Jun-11 13:25N 40°41' W 074°09'0 0.0
2016-Jun-11 12:33N 40°41' W 074°09'2 2.1
2016-Jun-11 11:33N 40°39' W 074°09'6 6.3
2016-Jun-11 10:33N 40°35' W 074°02'1312.7
2016-Jun-11 09:33N 40°27' W 073°49'2612.5
2016-Jun-11 07:30N 40°02' W 073°44'1818.7
2016-Jun-11 06:33N 39°44' W 073°42'1818.5
2016-Jun-11 05:33N 39°27' W 073°50'1918.5
2016-Jun-11 04:33N 39°10' W 073°59'1818.3
2016-Jun-11 03:33N 38°54' W 074°11'1818.3
2016-Jun-11 02:33N 38°38' W 074°22'1918.8
2016-Jun-11 01:33N 38°22' W 074°34'10918.2
2016-Jun-10 19:33N 36°52' W 075°52'1414.0
2016-Jun-10 18:33N 36°59' W 076°07'1110.8
2016-Jun-10 17:33N 36°56' W 076°20'3 0.8
2016-Jun-10 13:25N 36°53' W 076°21'0 0.0
2016-Jun-10 10:24N 36°53' W 076°21'0 0.0
2016-Jun-10 09:33N 36°53' W 076°21'0 0.0
2016-Jun-10 08:32N 36°53' W 076°21'0 0.0
2016-Jun-10 07:29N 36°53' W 076°21'0 0.0
2016-Jun-10 06:13N 36°53' W 076°21'0 0.0
2016-Jun-10 05:31N 36°53' W 076°21'0 0.0
2016-Jun-10 04:15N 36°53' W 076°21'0 0.0
2016-Jun-10 03:27N 36°53' W 076°21'0 0.0
2016-Jun-10 02:27N 36°53' W 076°21'0 0.0
2016-Jun-09 22:21N 36°53' W 076°21'0 0.0
2016-Jun-09 21:33N 36°53' W 076°21'6 5.3
2016-Jun-09 20:30N 36°58' W 076°20'1111.4
2016-Jun-09 19:34N 36°58' W 076°07'1312.7
2016-Jun-09 18:34N 36°53' W 075°52'32314.7
2016-Jun-08 20:33N 31°50' W 078°05'  

Dump ship's entire track history